createdAt,value
2019-01-31T00:01:18.248Z,99576.38
2019-01-31T00:03:46.467Z,99572.85
2019-01-31T00:05:59.619Z,99568.70
2019-01-31T00:08:27.896Z,99574.87
2019-01-31T00:10:37.832Z,99574.94
2019-01-31T00:13:00.007Z,99571.37
2019-01-31T00:15:09.874Z,99576.05
2019-01-31T00:17:45.123Z,99575.94
2019-01-31T00:20:06.723Z,99579.70
2019-01-31T00:22:22.845Z,99573.65
2019-01-31T00:24:32.722Z,99577.38
2019-01-31T00:27:03.782Z,99578.25
2019-01-31T00:29:10.863Z,99580.97
2019-01-31T00:31:29.795Z,99581.58
2019-01-31T00:33:51.711Z,99576.71
2019-01-31T00:36:36.393Z,99577.22
2019-01-31T00:39:04.073Z,99578.20
2019-01-31T00:41:35.087Z,99577.67
2019-01-31T00:43:51.291Z,99575.73
2019-01-31T00:46:31.588Z,99580.26
2019-01-31T00:48:56.535Z,99577.32
2019-01-31T00:51:09.162Z,99581.53
2019-01-31T00:53:39.204Z,99580.59
2019-01-31T00:55:48.871Z,99583.25
2019-01-31T00:58:07.742Z,99581.17
2019-01-31T01:00:17.826Z,99584.53
2019-01-31T01:02:44.439Z,99585.64
2019-01-31T01:05:09.347Z,99587.00
2019-01-31T01:07:45.890Z,99585.22
2019-01-31T01:10:10.818Z,99591.66
2019-01-31T01:12:47.975Z,99593.45
2019-01-31T01:15:17.498Z,99590.06
2019-01-31T01:17:33.388Z,99594.99
2019-01-31T01:19:52.500Z,99602.16
2019-01-31T01:22:17.525Z,99598.22
2019-01-31T01:24:33.427Z,99599.41
2019-01-31T01:26:55.624Z,99601.00
2019-01-31T01:29:14.602Z,99600.08
2019-01-31T01:31:36.081Z,99599.06
2019-01-31T01:33:48.951Z,99601.55
2019-01-31T01:36:01.884Z,99599.94
2019-01-31T01:38:23.875Z,99599.40
2019-01-31T01:40:50.351Z,99598.85
2019-01-31T01:43:26.004Z,99597.25
2019-01-31T01:45:41.688Z,99591.66
2019-01-31T01:47:57.595Z,99598.66
2019-01-31T01:50:26.928Z,99597.46
2019-01-31T01:52:39.774Z,99604.88
2019-01-31T01:54:52.903Z,99600.67
2019-01-31T01:57:05.728Z,99596.36
2019-01-31T01:59:33.877Z,99594.77
2019-01-31T02:02:01.716Z,99596.36
2019-01-31T02:04:14.918Z,99598.95
2019-01-31T02:06:45.696Z,99599.05
2019-01-31T02:09:16.798Z,99594.59
2019-01-31T02:11:50.948Z,99597.65
2019-01-31T02:14:23.566Z,99600.62
2019-01-31T02:17:06.176Z,99601.02
2019-01-31T02:19:16.107Z,99605.96
2019-01-31T02:21:32.182Z,99602.27
2019-01-31T02:23:54.538Z,99603.67
2019-01-31T02:26:27.606Z,99602.34
2019-01-31T02:28:43.512Z,99607.65
2019-01-31T02:31:22.120Z,99599.38
2019-01-31T02:33:57.751Z,99599.72
2019-01-31T02:36:16.258Z,99599.45
2019-01-31T02:38:32.255Z,99602.52
2019-01-31T02:41:00.209Z,99602.77
2019-01-31T02:43:13.354Z,99602.27
2019-01-31T02:46:04.357Z,99602.42
2019-01-31T02:48:23.371Z,99599.41
2019-01-31T02:50:48.282Z,99606.61
2019-01-31T02:53:04.326Z,99596.90
2019-01-31T02:55:36.943Z,99606.28
2019-01-31T02:58:02.110Z,99611.64
2019-01-31T03:00:42.523Z,99609.88
2019-01-31T03:03:10.476Z,99607.67
2019-01-31T03:05:20.710Z,99613.33
2019-01-31T03:07:47.306Z,99615.52
2019-01-31T03:10:00.432Z,99618.05
2019-01-31T03:12:31.762Z,99615.31
2019-01-31T03:14:35.773Z,99614.84
2019-01-31T03:16:51.286Z,99612.35
2019-01-31T03:19:16.517Z,99611.70
2019-01-31T03:21:39.962Z,99613.25
2019-01-31T03:24:01.941Z,99617.46
2019-01-31T03:26:24.275Z,99612.50
2019-01-31T03:28:43.014Z,99605.72
2019-01-31T03:30:55.913Z,99609.86
2019-01-31T03:33:11.566Z,99613.13
2019-01-31T03:35:45.966Z,99613.84
2019-01-31T03:38:05.284Z,99614.89
2019-01-31T03:40:29.771Z,99613.87
2019-01-31T03:43:07.297Z,99610.00
2019-01-31T03:45:36.847Z,99616.27
2019-01-31T03:47:59.296Z,99613.93
2019-01-31T03:50:11.741Z,99611.00
2019-01-31T03:52:24.827Z,99619.78
2019-01-31T03:55:06.803Z,99620.63
2019-01-31T03:57:46.574Z,99613.45
2019-01-31T03:59:53.635Z,99613.70
2019-01-31T04:02:06.591Z,99615.08
2019-01-31T04:04:13.700Z,99619.72
2019-01-31T04:06:18.099Z,99618.45
2019-01-31T04:08:19.462Z,99617.80
2019-01-31T04:10:20.929Z,99616.26
2019-01-31T04:12:22.541Z,99619.67
2019-01-31T04:14:27.329Z,99623.99
2019-01-31T04:16:27.376Z,99625.15
2019-01-31T04:18:28.799Z,99625.63
2019-01-31T04:20:30.168Z,99625.52
2019-01-31T04:22:31.561Z,99624.52
2019-01-31T04:24:32.962Z,99622.69
2019-01-31T04:26:34.357Z,99628.09
2019-01-31T04:28:35.707Z,99629.41
2019-01-31T04:30:37.228Z,99625.47
2019-01-31T04:32:38.585Z,99624.76
2019-01-31T04:34:40.014Z,99627.23
2019-01-31T04:36:41.381Z,99631.81
2019-01-31T04:38:42.746Z,99629.98
2019-01-31T04:40:44.140Z,99633.60
2019-01-31T04:42:45.666Z,99626.90
2019-01-31T04:44:47.056Z,99632.73
2019-01-31T04:46:48.442Z,99633.36
2019-01-31T04:48:50.023Z,99636.02
2019-01-31T04:50:51.426Z,99637.02
2019-01-31T04:52:52.794Z,99641.07
2019-01-31T04:54:54.212Z,99638.09
2019-01-31T04:56:55.603Z,99641.23
2019-01-31T04:58:56.981Z,99643.77
2019-01-31T05:00:58.397Z,99646.06
2019-01-31T05:02:59.749Z,99647.70
2019-01-31T05:05:01.265Z,99648.30
2019-01-31T05:07:02.703Z,99652.61
2019-01-31T05:09:05.888Z,99650.36
2019-01-31T05:11:07.297Z,99651.22
2019-01-31T05:13:08.674Z,99656.86
2019-01-31T05:15:12.453Z,99661.70
2019-01-31T05:17:13.842Z,99657.27
2019-01-31T05:19:15.217Z,99659.19
2019-01-31T05:21:16.846Z,99657.19
2019-01-31T05:23:18.349Z,99663.20
2019-01-31T05:25:19.719Z,99663.59
2019-01-31T05:27:21.142Z,99668.47
2019-01-31T05:29:22.537Z,99667.55
2019-01-31T05:31:23.899Z,99670.14
2019-01-31T05:33:25.290Z,99669.11
2019-01-31T05:35:26.689Z,99666.98
2019-01-31T05:37:28.073Z,99669.64
2019-01-31T05:39:29.432Z,99670.45
2019-01-31T05:41:30.849Z,99677.66
2019-01-31T05:43:32.226Z,99670.21
2019-01-31T05:45:33.599Z,99668.49
2019-01-31T05:47:35.004Z,99677.80
2019-01-31T05:49:36.367Z,99675.21
2019-01-31T05:51:39.401Z,99677.81
2019-01-31T05:53:40.953Z,99683.86
2019-01-31T05:55:42.321Z,99686.45
2019-01-31T05:57:43.722Z,99682.67
2019-01-31T05:59:45.914Z,99684.19
2019-01-31T06:01:47.283Z,99686.27
2019-01-31T06:03:48.662Z,99687.05
2019-01-31T06:05:50.164Z,99685.66
2019-01-31T06:07:51.527Z,99692.10
2019-01-31T06:09:52.931Z,99688.98
2019-01-31T06:11:54.309Z,99689.91
2019-01-31T06:13:55.670Z,99691.62
2019-01-31T06:15:57.102Z,99698.08
2019-01-31T06:17:58.462Z,99690.83
2019-01-31T06:19:59.833Z,99693.55
2019-01-31T06:22:01.240Z,99699.73
2019-01-31T06:24:02.949Z,99701.21
2019-01-31T06:26:04.322Z,99696.34
2019-01-31T06:28:05.721Z,99702.46
2019-01-31T06:30:15.976Z,99705.51
2019-01-31T06:32:17.344Z,99705.41
2019-01-31T06:34:18.763Z,99708.78
2019-01-31T06:36:20.120Z,99706.30
2019-01-31T06:38:21.488Z,99706.91
2019-01-31T06:40:22.910Z,99713.53
2019-01-31T06:42:24.288Z,99711.30
2019-01-31T06:44:25.711Z,99711.81
2019-01-31T06:46:27.093Z,99716.12
2019-01-31T06:48:28.469Z,99717.66
2019-01-31T06:50:29.899Z,99721.95
2019-01-31T06:52:31.260Z,99721.20
2019-01-31T06:54:32.625Z,99722.44
2019-01-31T06:56:34.033Z,99716.19
2019-01-31T06:58:35.407Z,99712.89
2019-01-31T07:00:36.777Z,99716.05
2019-01-31T07:02:38.193Z,99715.55
2019-01-31T07:04:39.556Z,99717.59
2019-01-31T07:06:40.931Z,99718.98
2019-01-31T07:08:42.329Z,99714.80
2019-01-31T07:10:43.797Z,99712.20
2019-01-31T07:12:45.205Z,99713.57
2019-01-31T07:14:46.610Z,99720.84
2019-01-31T07:16:47.970Z,99722.52
2019-01-31T07:18:49.581Z,99714.55
2019-01-31T07:20:50.960Z,99720.47
2019-01-31T07:22:52.330Z,99720.27
2019-01-31T07:24:54.046Z,99716.94
2019-01-31T07:26:55.415Z,99725.14
2019-01-31T07:28:56.789Z,99724.31
2019-01-31T07:30:58.239Z,99727.97
2019-01-31T07:32:59.602Z,99727.37
2019-01-31T07:35:00.985Z,99728.27
2019-01-31T07:37:02.395Z,99728.88
2019-01-31T07:39:06.263Z,99725.45
2019-01-31T07:41:07.670Z,99726.61
2019-01-31T07:43:09.035Z,99733.65
2019-01-31T07:45:18.333Z,99735.02
2019-01-31T07:47:19.742Z,99730.27
2019-01-31T07:49:21.122Z,99733.20
2019-01-31T07:51:22.504Z,99732.09
2019-01-31T07:53:23.903Z,99733.63
2019-01-31T07:55:25.273Z,99736.83
2019-01-31T07:57:26.655Z,99735.60
2019-01-31T07:59:28.077Z,99737.42
2019-01-31T08:01:29.477Z,99738.20
2019-01-31T08:03:30.846Z,99740.81
2019-01-31T08:05:32.263Z,99738.88
2019-01-31T08:07:33.636Z,99742.85
2019-01-31T08:09:35.018Z,99743.11
2019-01-31T08:11:36.411Z,99744.84
2019-01-31T08:13:37.786Z,99750.00
2019-01-31T08:15:39.203Z,99749.00
2019-01-31T08:17:41.066Z,99751.05
2019-01-31T08:19:42.469Z,99751.27
2019-01-31T08:21:43.856Z,99753.27
2019-01-31T08:23:45.447Z,99755.45
2019-01-31T08:25:46.865Z,99756.23
2019-01-31T08:27:49.249Z,99753.91
2019-01-31T08:29:50.645Z,99752.45
2019-01-31T08:31:52.016Z,99759.11
2019-01-31T08:33:53.609Z,99757.66
2019-01-31T08:35:54.978Z,99758.31
2019-01-31T08:37:56.346Z,99759.61
2019-01-31T08:39:57.749Z,99762.77
2019-01-31T08:42:03.871Z,99755.98
2019-01-31T08:44:02.669Z,99756.38
2019-01-31T08:46:04.091Z,99758.80
2019-01-31T08:48:05.593Z,99761.80
2019-01-31T08:50:14.874Z,99767.41
2019-01-31T08:52:16.274Z,99768.56
2019-01-31T08:54:17.664Z,99769.38
2019-01-31T08:56:19.032Z,99768.47
2019-01-31T08:58:20.510Z,99771.66
2019-01-31T09:00:26.106Z,99765.94
2019-01-31T09:02:27.476Z,99768.59
2019-01-31T09:04:28.880Z,99766.40
2019-01-31T09:06:30.353Z,99770.62
2019-01-31T09:08:31.736Z,99771.39
2019-01-31T09:10:36.977Z,99766.64
2019-01-31T09:12:38.429Z,99763.09
2019-01-31T09:14:39.841Z,99767.73
2019-01-31T09:16:41.216Z,99772.74
2019-01-31T09:18:42.643Z,99771.95
2019-01-31T09:20:58.384Z,99775.98
2019-01-31T09:23:17.297Z,99781.70
2019-01-31T09:26:01.820Z,99777.78
2019-01-31T09:28:20.734Z,99776.17
2019-01-31T09:30:52.128Z,99769.29
2019-01-31T09:33:23.504Z,99772.42
2019-01-31T09:35:47.187Z,99775.13
2019-01-31T09:38:34.969Z,99771.18
2019-01-31T09:40:56.055Z,99774.68
2019-01-31T09:43:06.144Z,99774.45
2019-01-31T09:45:16.206Z,99775.44
2019-01-31T09:47:41.656Z,99778.09
2019-01-31T09:50:23.344Z,99773.92
2019-01-31T09:52:55.437Z,99772.05
2019-01-31T09:55:52.468Z,99771.31
2019-01-31T09:58:02.287Z,99776.23
2019-01-31T10:00:12.038Z,99771.38
2019-01-31T10:02:35.837Z,99780.45
2019-01-31T10:04:54.282Z,99779.20
2019-01-31T10:07:22.314Z,99773.58
2019-01-31T10:09:38.293Z,99772.91
2019-01-31T10:12:04.739Z,99773.31
2019-01-31T10:14:27.123Z,99769.95
2019-01-31T10:16:55.288Z,99771.82
2019-01-31T10:19:27.701Z,99767.63
2019-01-31T10:21:40.828Z,99764.06
2019-01-31T10:24:14.479Z,99770.34
2019-01-31T10:26:42.390Z,99765.03
2019-01-31T10:29:04.356Z,99764.84
2019-01-31T10:31:47.823Z,99764.29
2019-01-31T10:34:29.765Z,99763.81
2019-01-31T10:37:00.852Z,99757.77
2019-01-31T10:39:10.653Z,99751.88
2019-01-31T10:41:34.044Z,99756.08
2019-01-31T10:43:53.055Z,99752.40
2019-01-31T10:46:09.043Z,99755.36
2019-01-31T10:48:27.794Z,99751.59
2019-01-31T10:51:02.161Z,99750.02
2019-01-31T10:53:26.555Z,99750.04
2019-01-31T10:56:06.921Z,99749.80
2019-01-31T10:58:22.947Z,99751.42
2019-01-31T11:01:03.249Z,99745.12
2019-01-31T11:03:38.913Z,99746.84
2019-01-31T11:06:16.502Z,99744.93
2019-01-31T11:08:58.260Z,99747.45
2019-01-31T11:11:17.060Z,99747.58
2019-01-31T11:13:49.393Z,99739.88
2019-01-31T11:16:28.241Z,99744.47
2019-01-31T11:18:49.304Z,99748.33
2019-01-31T11:21:26.006Z,99738.84
2019-01-31T11:23:38.852Z,99738.20
2019-01-31T11:25:54.802Z,99743.08
2019-01-31T11:28:13.804Z,99745.66
2019-01-31T11:30:36.074Z,99743.13
2019-01-31T11:33:19.228Z,99741.34
2019-01-31T11:36:12.774Z,99742.52
2019-01-31T11:39:00.081Z,99745.06
2019-01-31T11:41:27.808Z,99745.92
2019-01-31T11:43:49.325Z,99740.13
2019-01-31T11:46:08.487Z,99739.51
2019-01-31T11:48:30.554Z,99745.05
2019-01-31T11:51:01.619Z,99738.38
2019-01-31T11:53:08.706Z,99741.25
2019-01-31T11:55:27.195Z,99739.03
2019-01-31T11:58:04.112Z,99740.25
2019-01-31T12:00:12.743Z,99731.80
2019-01-31T12:02:14.159Z,99734.24
2019-01-31T12:04:15.691Z,99736.13
2019-01-31T12:06:17.065Z,99732.20
2019-01-31T12:08:18.525Z,99721.75
2019-01-31T12:10:20.302Z,99726.81
2019-01-31T12:12:22.685Z,99732.09
2019-01-31T12:14:24.055Z,99725.63
2019-01-31T12:16:25.469Z,99721.18
2019-01-31T12:18:26.837Z,99724.26
2019-01-31T12:20:28.370Z,99717.59
2019-01-31T12:22:29.800Z,99731.05
2019-01-31T12:24:31.228Z,99721.73
2019-01-31T12:26:32.593Z,99722.97
2019-01-31T12:28:34.024Z,99719.29
2019-01-31T12:30:35.383Z,99720.42
2019-01-31T12:32:36.823Z,99722.59
2019-01-31T12:34:38.194Z,99713.48
2019-01-31T12:36:39.667Z,99714.69
2019-01-31T12:38:41.070Z,99726.74
2019-01-31T12:40:42.453Z,99719.70
2019-01-31T12:42:44.314Z,99726.91
2019-01-31T12:44:45.893Z,99721.61
2019-01-31T12:46:47.394Z,99719.30
2019-01-31T12:48:48.859Z,99713.22
2019-01-31T12:50:50.428Z,99717.21
2019-01-31T12:52:52.163Z,99713.16
2019-01-31T12:54:53.528Z,99706.23
2019-01-31T12:56:54.921Z,99709.31
2019-01-31T12:58:56.348Z,99709.03
2019-01-31T13:00:57.725Z,99705.05
2019-01-31T13:02:59.257Z,99703.23
2019-01-31T13:05:00.689Z,99698.70
2019-01-31T13:07:02.662Z,99703.58
2019-01-31T13:09:07.487Z,99703.27
2019-01-31T13:11:08.953Z,99700.78
2019-01-31T13:13:10.420Z,99708.91
2019-01-31T13:15:14.392Z,99709.64
2019-01-31T13:17:15.765Z,99708.52
2019-01-31T13:19:17.145Z,99708.61
2019-01-31T13:21:20.720Z,99714.66
2019-01-31T13:23:21.852Z,99709.62
2019-01-31T13:25:24.626Z,99707.80
2019-01-31T13:27:26.062Z,99711.53
2019-01-31T13:29:27.435Z,99711.53
2019-01-31T13:31:28.790Z,99707.70
2019-01-31T13:33:30.312Z,99708.52
2019-01-31T13:35:31.690Z,99703.36
2019-01-31T13:37:33.142Z,99709.83
2019-01-31T13:39:34.699Z,99709.88
2019-01-31T13:41:36.285Z,99701.88
2019-01-31T13:43:37.652Z,99699.73
2019-01-31T13:45:39.198Z,99692.52
2019-01-31T13:47:40.779Z,99695.13
2019-01-31T13:49:42.152Z,99691.45
2019-01-31T13:51:43.575Z,99692.16
2019-01-31T13:53:45.006Z,99692.41
2019-01-31T13:55:46.374Z,99692.09
2019-01-31T13:57:48.053Z,99696.13
2019-01-31T13:59:49.424Z,99697.88
2019-01-31T14:01:50.873Z,99701.33
2019-01-31T14:03:52.261Z,99697.56
2019-01-31T14:05:53.636Z,99696.58
2019-01-31T14:07:55.070Z,99696.94
2019-01-31T14:09:56.570Z,99700.05
2019-01-31T14:11:57.967Z,99700.53
2019-01-31T14:14:08.702Z,99705.59
2019-01-31T14:16:02.973Z,99705.21
2019-01-31T14:18:04.607Z,99699.84
2019-01-31T14:20:11.754Z,99702.34
2019-01-31T14:22:13.118Z,99705.69
2019-01-31T14:24:14.563Z,99707.64
2019-01-31T14:26:16.845Z,99712.55
2019-01-31T14:28:18.246Z,99719.06
2019-01-31T14:30:33.215Z,99711.70
2019-01-31T14:32:34.887Z,99717.42
2019-01-31T14:34:36.319Z,99713.83
2019-01-31T14:36:37.858Z,99716.07
2019-01-31T14:38:39.339Z,99719.93
2019-01-31T14:40:40.711Z,99716.69
2019-01-31T14:42:42.234Z,99721.65
2019-01-31T14:44:43.616Z,99727.25
2019-01-31T14:46:44.983Z,99723.59
2019-01-31T14:48:46.420Z,99728.48
2019-01-31T14:50:48.195Z,99727.73
2019-01-31T14:52:49.753Z,99720.83
2019-01-31T14:54:51.169Z,99720.34
2019-01-31T14:56:52.541Z,99720.86
2019-01-31T14:58:53.921Z,99718.10
2019-01-31T15:00:55.495Z,99718.70
2019-01-31T15:02:56.870Z,99724.69
2019-01-31T15:04:58.252Z,99723.54
2019-01-31T15:06:59.665Z,99720.93
2019-01-31T15:09:01.036Z,99722.52
2019-01-31T15:11:02.676Z,99721.50
2019-01-31T15:13:04.444Z,99724.21
2019-01-31T15:15:10.148Z,99719.78
2019-01-31T15:17:11.577Z,99721.85
2019-01-31T15:19:12.959Z,99719.93
2019-01-31T15:21:14.334Z,99723.48
2019-01-31T15:23:15.815Z,99718.44
2019-01-31T15:25:17.163Z,99716.66
2019-01-31T15:27:18.539Z,99719.08
2019-01-31T15:29:19.975Z,99724.70
2019-01-31T15:31:21.341Z,99723.91
2019-01-31T15:33:22.815Z,99725.02
2019-01-31T15:35:24.551Z,99724.70
2019-01-31T15:37:25.923Z,99721.86
2019-01-31T15:39:27.298Z,99719.48
2019-01-31T15:41:28.710Z,99715.53
2019-01-31T15:43:30.253Z,99724.22
2019-01-31T15:45:31.628Z,99723.11
2019-01-31T15:47:33.163Z,99721.18
2019-01-31T15:49:34.656Z,99721.89
2019-01-31T15:51:36.123Z,99722.45
2019-01-31T15:53:37.566Z,99723.52
2019-01-31T15:55:39.142Z,99724.61
2019-01-31T15:57:40.999Z,99725.41
2019-01-31T15:59:42.371Z,99726.73
2019-01-31T16:01:43.748Z,99726.01
2019-01-31T16:03:45.210Z,99725.36
2019-01-31T16:05:46.880Z,99727.81
2019-01-31T16:07:48.251Z,99734.78
2019-01-31T16:09:49.689Z,99736.73
2019-01-31T16:11:51.142Z,99735.73
2019-01-31T16:13:52.547Z,99732.57
2019-01-31T16:15:54.027Z,99731.59
2019-01-31T16:17:55.499Z,99733.19
2019-01-31T16:19:56.877Z,99735.77
2019-01-31T16:21:58.311Z,99730.39
2019-01-31T16:23:59.993Z,99733.83
2019-01-31T16:26:01.370Z,99730.56
2019-01-31T16:28:03.456Z,99727.59
2019-01-31T16:30:12.625Z,99730.45
2019-01-31T16:32:14.012Z,99737.80
2019-01-31T16:34:15.407Z,99739.27
2019-01-31T16:36:17.803Z,99735.14
2019-01-31T16:38:19.177Z,99737.77
2019-01-31T16:40:20.546Z,99741.27
2019-01-31T16:42:22.075Z,99745.30
2019-01-31T16:44:23.443Z,99745.89
2019-01-31T16:46:24.839Z,99745.69
2019-01-31T16:48:26.274Z,99748.02
2019-01-31T16:50:27.670Z,99745.53
2019-01-31T16:52:29.059Z,99741.95
2019-01-31T16:54:30.508Z,99745.14
2019-01-31T16:56:31.890Z,99738.64
2019-01-31T16:58:33.361Z,99744.20
2019-01-31T17:00:35.028Z,99745.77
2019-01-31T17:02:36.403Z,99746.89
2019-01-31T17:04:37.788Z,99750.91
2019-01-31T17:06:39.247Z,99752.20
2019-01-31T17:08:40.632Z,99748.67
2019-01-31T17:10:42.004Z,99747.45
2019-01-31T17:12:43.561Z,99748.00
2019-01-31T17:14:44.955Z,99745.80
2019-01-31T17:16:46.335Z,99746.59
2019-01-31T17:18:48.019Z,99745.33
2019-01-31T17:20:49.424Z,99745.69
2019-01-31T17:22:50.793Z,99744.06
2019-01-31T17:24:52.225Z,99740.47
2019-01-31T17:26:53.605Z,99741.36
2019-01-31T17:28:54.985Z,99742.47
2019-01-31T17:30:56.530Z,99743.66
2019-01-31T17:33:00.237Z,99740.49
2019-01-31T17:35:01.197Z,99737.19
2019-01-31T17:37:02.990Z,99736.72
2019-01-31T17:39:06.567Z,99737.60
2019-01-31T17:41:08.038Z,99736.79
2019-01-31T17:43:09.589Z,99734.48
2019-01-31T17:45:15.375Z,99736.12
2019-01-31T17:47:16.780Z,99736.38
2019-01-31T17:49:18.250Z,99736.62
2019-01-31T17:51:19.829Z,99733.11
2019-01-31T17:53:21.199Z,99734.55
2019-01-31T17:55:24.971Z,99735.09
2019-01-31T17:57:26.349Z,99736.55
2019-01-31T17:59:27.734Z,99734.05
2019-01-31T18:01:29.151Z,99739.55
2019-01-31T18:03:30.574Z,99733.28
2019-01-31T18:05:31.949Z,99738.08
2019-01-31T18:07:33.395Z,99734.55
2019-01-31T18:09:34.764Z,99734.09
2019-01-31T18:11:36.151Z,99732.16
2019-01-31T18:13:37.611Z,99733.87
2019-01-31T18:15:42.302Z,99730.84
2019-01-31T18:17:42.264Z,99733.93
2019-01-31T18:19:43.719Z,99733.00
2019-01-31T18:21:45.188Z,99730.48
2019-01-31T18:23:46.570Z,99734.89
2019-01-31T18:25:48.030Z,99727.16
2019-01-31T18:27:49.424Z,99728.59
2019-01-31T18:29:50.809Z,99732.33
2019-01-31T18:31:52.464Z,99731.44
2019-01-31T18:33:53.862Z,99731.47
2019-01-31T18:35:55.318Z,99729.41
2019-01-31T18:37:56.796Z,99729.01
2019-01-31T18:39:58.160Z,99725.39
2019-01-31T18:41:59.544Z,99727.47
2019-01-31T18:44:00.968Z,99725.17
2019-01-31T18:46:02.544Z,99719.13
2019-01-31T18:48:05.240Z,99725.11
2019-01-31T18:50:11.930Z,99723.08
2019-01-31T18:52:13.313Z,99722.09
2019-01-31T18:54:16.752Z,99724.95
2019-01-31T18:56:18.115Z,99723.30
2019-01-31T18:58:19.589Z,99724.44
2019-01-31T19:00:28.042Z,99726.22
2019-01-31T19:02:29.411Z,99725.44
2019-01-31T19:04:30.777Z,99718.41
2019-01-31T19:06:32.217Z,99712.71
2019-01-31T19:08:33.602Z,99718.09
2019-01-31T19:10:42.732Z,99712.76
2019-01-31T19:12:38.498Z,99712.28
2019-01-31T19:14:39.871Z,99713.84
2019-01-31T19:16:41.238Z,99717.42
2019-01-31T19:18:42.794Z,99709.64
2019-01-31T19:20:44.161Z,99710.81
2019-01-31T19:22:46.133Z,99714.65
2019-01-31T19:24:47.566Z,99711.67
2019-01-31T19:26:48.973Z,99709.14
2019-01-31T19:28:50.433Z,99714.08
2019-01-31T19:30:51.958Z,99708.84
2019-01-31T19:32:53.439Z,99711.98
2019-01-31T19:34:54.816Z,99706.80
2019-01-31T19:36:56.251Z,99700.89
2019-01-31T19:38:57.756Z,99704.77
2019-01-31T19:40:59.125Z,99707.84
2019-01-31T19:43:00.517Z,99708.50
2019-01-31T19:45:06.120Z,99708.83
2019-01-31T19:47:07.578Z,99707.62
2019-01-31T19:49:08.947Z,99706.38
2019-01-31T19:51:10.329Z,99707.94
2019-01-31T19:53:11.780Z,99708.62
2019-01-31T19:55:13.157Z,99703.59
2019-01-31T19:57:14.511Z,99700.09
2019-01-31T19:59:15.944Z,99703.97
2019-01-31T20:01:17.305Z,99704.22
2019-01-31T20:03:18.666Z,99702.48
2019-01-31T20:05:20.200Z,99698.45
2019-01-31T20:07:21.558Z,99707.79
2019-01-31T20:09:23.030Z,99707.88
2019-01-31T20:11:24.482Z,99708.59
2019-01-31T20:13:26.045Z,99708.95
2019-01-31T20:15:27.913Z,99707.09
2019-01-31T20:17:29.336Z,99703.63
2019-01-31T20:19:30.704Z,99703.08
2019-01-31T20:21:32.095Z,99701.98
2019-01-31T20:23:33.519Z,99706.96
2019-01-31T20:25:34.991Z,99703.47
2019-01-31T20:27:36.466Z,99702.23
2019-01-31T20:29:37.881Z,99704.25
2019-01-31T20:31:39.327Z,99700.35
2019-01-31T20:33:40.686Z,99698.53
2019-01-31T20:35:42.070Z,99698.61
2019-01-31T20:37:43.499Z,99699.18
2019-01-31T20:39:44.956Z,99702.47
2019-01-31T20:41:53.839Z,99698.31
2019-01-31T20:43:49.643Z,99695.53
2019-01-31T20:45:51.027Z,99698.58
2019-01-31T20:47:52.442Z,99691.81
2019-01-31T20:49:53.823Z,99687.95
2019-01-31T20:51:55.192Z,99694.05
2019-01-31T20:53:56.607Z,99684.45
2019-01-31T20:55:57.974Z,99695.54
2019-01-31T20:57:59.376Z,99678.95
2019-01-31T21:00:00.828Z,99684.70
2019-01-31T21:02:02.412Z,99677.42
2019-01-31T21:04:03.978Z,99679.67
2019-01-31T21:06:05.771Z,99681.00
2019-01-31T21:08:08.351Z,99684.66
2019-01-31T21:10:10.527Z,99685.30
2019-01-31T21:12:11.961Z,99686.64
2019-01-31T21:14:13.331Z,99687.41
2019-01-31T21:16:14.802Z,99683.55
2019-01-31T21:18:16.219Z,99687.86
2019-01-31T21:20:20.685Z,99687.41
2019-01-31T21:22:22.136Z,99681.31
2019-01-31T21:24:23.509Z,99684.69
2019-01-31T21:26:24.970Z,99687.33
2019-01-31T21:28:26.418Z,99688.88
2019-01-31T21:30:35.285Z,99690.00
2019-01-31T21:32:36.669Z,99688.46
2019-01-31T21:34:38.514Z,99691.14
2019-01-31T21:36:39.996Z,99689.16
2019-01-31T21:38:41.348Z,99687.50
2019-01-31T21:40:42.831Z,99686.81
2019-01-31T21:42:44.303Z,99688.80
2019-01-31T21:44:45.726Z,99683.79
2019-01-31T21:46:47.168Z,99678.69
2019-01-31T21:48:48.541Z,99680.55
2019-01-31T21:50:49.982Z,99679.29
2019-01-31T21:52:51.505Z,99675.03
2019-01-31T21:54:52.876Z,99671.53
2019-01-31T21:56:54.240Z,99672.45
2019-01-31T21:58:55.658Z,99667.51
2019-01-31T22:00:57.039Z,99667.28
2019-01-31T22:02:58.924Z,99668.14
2019-01-31T22:05:00.510Z,99666.37
2019-01-31T22:07:01.909Z,99670.03
2019-01-31T22:09:06.783Z,99669.59
2019-01-31T22:11:08.232Z,99664.82
2019-01-31T22:13:09.585Z,99667.71
2019-01-31T22:15:24.356Z,99659.55
2019-01-31T22:17:25.783Z,99667.02
2019-01-31T22:19:27.155Z,99667.72
2019-01-31T22:21:28.587Z,99671.80
2019-01-31T22:23:29.958Z,99672.02
2019-01-31T22:25:31.334Z,99667.50
2019-01-31T22:27:32.886Z,99666.74
2019-01-31T22:29:34.258Z,99666.81
2019-01-31T22:31:35.739Z,99666.91
2019-01-31T22:33:37.186Z,99665.20
2019-01-31T22:35:38.655Z,99664.55
2019-01-31T22:37:40.038Z,99663.30
2019-01-31T22:39:41.461Z,99659.92
2019-01-31T22:41:42.842Z,99662.55
2019-01-31T22:43:44.236Z,99654.56
2019-01-31T22:45:45.653Z,99654.61
2019-01-31T22:47:47.121Z,99650.13
2019-01-31T22:49:48.489Z,99646.92
2019-01-31T22:51:49.929Z,99649.48
2019-01-31T22:53:51.392Z,99626.55
2019-01-31T22:55:52.873Z,99638.41
2019-01-31T22:57:54.374Z,99638.86
2019-01-31T22:59:55.855Z,99642.25
2019-01-31T23:01:57.421Z,99646.64
2019-01-31T23:03:59.099Z,99646.37
2019-01-31T23:06:00.467Z,99640.58
2019-01-31T23:08:01.873Z,99642.72
2019-01-31T23:10:09.023Z,99640.30
2019-01-31T23:12:10.384Z,99642.02
2019-01-31T23:14:11.749Z,99633.79
2019-01-31T23:16:13.388Z,99636.98
2019-01-31T23:18:14.755Z,99635.37
2019-01-31T23:20:16.123Z,99635.24
2019-01-31T23:22:17.565Z,99639.34
2019-01-31T23:24:18.929Z,99633.47
2019-01-31T23:26:22.227Z,99640.41
2019-01-31T23:28:23.626Z,99630.13
2019-01-31T23:30:25.004Z,99628.73
2019-01-31T23:32:26.436Z,99630.23
2019-01-31T23:34:27.846Z,99628.31
2019-01-31T23:36:29.311Z,99632.09
2019-01-31T23:38:30.727Z,99630.15
2019-01-31T23:40:32.144Z,99624.50
2019-01-31T23:42:33.519Z,99624.92
2019-01-31T23:44:34.900Z,99617.20
2019-01-31T23:46:36.445Z,99617.02
2019-01-31T23:48:37.829Z,99617.03
2019-01-31T23:50:39.192Z,99611.69
2019-01-31T23:52:41.440Z,99617.57
2019-01-31T23:54:42.802Z,99606.97
2019-01-31T23:56:44.171Z,99609.18
2019-01-31T23:58:45.589Z,99611.59
